Time;durP1;ratioP1;P1;durP2;ratioP2;P2;SDS_P1;SDS_P2;PMS_P1;PMS_P2;Temp;Humidity;BMP_temperature;BMP_pressure;BME280_temperature;BME280_humidity;BME280_pressure;Samples;Min_cycle;Max_cycle;Signal;HPM_P1;HPM_P2
2023/12/04 00:01:33;;;;;;;58.67;25.48;;;;;;;;;;5010659;28;20042;-79
2023/12/04 00:03:59;;;;;;;57.10;23.90;;;;;;;;;;5009754;28;20034;-78
2023/12/04 00:06:25;;;;;;;60.13;25.05;;;;;;;;;;5012239;28;20018;-78
2023/12/04 00:08:51;;;;;;;57.05;24.73;;;;;;;;;;5014010;28;20084;-77
2023/12/04 00:11:17;;;;;;;57.03;23.40;;;;;;;;;;5006665;28;20027;-76
2023/12/04 00:13:44;;;;;;;54.83;23.60;;;;;;;;;;5006658;28;20026;-76
2023/12/04 00:16:10;;;;;;;55.72;25.33;;;;;;;;;;5009456;28;20026;-77
2023/12/04 00:18:36;;;;;;;58.22;24.60;;;;;;;;;;5024616;28;20053;-76
2023/12/04 00:21:02;;;;;;;57.47;25.50;;;;;;;;;;5002432;28;20037;-76
2023/12/04 00:23:29;;;;;;;59.00;23.65;;;;;;;;;;5009167;28;20062;-78
2023/12/04 00:25:56;;;;;;;51.13;23.58;;;;;;;;;;5007331;28;20060;-77
2023/12/04 00:28:22;;;;;;;56.05;23.73;;;;;;;;;;5021120;28;20068;-77
2023/12/04 00:30:48;;;;;;;53.47;24.17;;;;;;;;;;5024758;28;20052;-77
2023/12/04 00:33:14;;;;;;;51.15;22.23;;;;;;;;;;5024002;28;20450;-77
2023/12/04 00:35:40;;;;;;;59.88;22.75;;;;;;;;;;5009038;28;20321;-77
2023/12/04 00:38:07;;;;;;;51.53;22.45;;;;;;;;;;5008181;28;20018;-76
2023/12/04 00:40:33;;;;;;;50.80;22.80;;;;;;;;;;5020618;28;20487;-77
2023/12/04 00:42:59;;;;;;;57.10;22.98;;;;;;;;;;5017623;28;20022;-76
2023/12/04 00:45:25;;;;;;;51.85;22.90;;;;;;;;;;5006831;28;20025;-77
2023/12/04 00:47:51;;;;;;;52.75;22.67;;;;;;;;;;5008647;28;20037;-76
2023/12/04 00:50:18;;;;;;;52.97;21.73;;;;;;;;;;5008071;28;20238;-76
2023/12/04 00:52:44;;;;;;;50.58;21.75;;;;;;;;;;5008038;28;20069;-77
2023/12/04 00:55:11;;;;;;;51.45;21.92;;;;;;;;;;5008298;28;20499;-76
2023/12/04 00:57:38;;;;;;;53.83;24.10;;;;;;;;;;5008318;28;20115;-76
2023/12/04 01:00:05;;;;;;;52.97;23.05;;;;;;;;;;5006339;28;20023;-77
2023/12/04 01:02:31;;;;;;;57.55;25.10;;;;;;;;;;5021308;28;20034;-76
2023/12/04 01:04:57;;;;;;;51.10;21.65;;;;;;;;;;5007472;28;20180;-76
2023/12/04 01:07:24;;;;;;;59.15;24.80;;;;;;;;;;5007070;28;20129;-76
2023/12/04 01:09:50;;;;;;;54.85;24.30;;;;;;;;;;5007649;28;20030;-75
2023/12/04 01:12:16;;;;;;;54.05;24.02;;;;;;;;;;5022832;28;20431;-74
2023/12/04 01:14:42;;;;;;;58.92;25.45;;;;;;;;;;5008408;28;20022;-76
2023/12/04 01:17:08;;;;;;;59.28;25.05;;;;;;;;;;5009740;28;20034;-75
2023/12/04 01:19:34;;;;;;;63.65;25.52;;;;;;;;;;5006565;28;20494;-76
2023/12/04 01:22:01;;;;;;;58.92;24.73;;;;;;;;;;5007893;28;20120;-77
2023/12/04 01:24:27;;;;;;;62.67;26.92;;;;;;;;;;5007249;28;20053;-76
2023/12/04 01:26:53;;;;;;;57.78;24.77;;;;;;;;;;5006257;28;20164;-76
2023/12/04 01:29:19;;;;;;;59.92;25.17;;;;;;;;;;5007384;28;20049;-77
2023/12/04 01:31:46;;;;;;;57.28;24.05;;;;;;;;;;5005665;28;20031;-77
2023/12/04 01:34:12;;;;;;;67.07;25.98;;;;;;;;;;5020773;28;20602;-77
2023/12/04 01:36:41;;;;;;;58.60;25.80;;;;;;;;;;5008819;28;20087;-76
2023/12/04 01:39:08;;;;;;;61.80;27.23;;;;;;;;;;5018306;28;20025;-75
2023/12/04 01:41:34;;;;;;;51.05;24.95;;;;;;;;;;5007061;28;20034;-76
2023/12/04 01:44:00;;;;;;;57.40;26.88;;;;;;;;;;5006825;28;20034;-76
2023/12/04 01:46:27;;;;;;;60.63;25.55;;;;;;;;;;5004336;28;20420;-76
2023/12/04 01:48:54;;;;;;;54.55;24.23;;;;;;;;;;5008029;28;20057;-75
2023/12/04 01:51:22;;;;;;;54.28;23.77;;;;;;;;;;5004434;28;20756;-76
2023/12/04 01:53:48;;;;;;;58.15;24.35;;;;;;;;;;5007595;28;20109;-77
2023/12/04 01:56:15;;;;;;;53.85;24.10;;;;;;;;;;5008089;28;20025;-77
2023/12/04 01:58:41;;;;;;;50.80;23.58;;;;;;;;;;5007842;28;20084;-76
2023/12/04 02:01:09;;;;;;;54.58;24.35;;;;;;;;;;5007779;28;20026;-76
2023/12/04 02:03:36;;;;;;;52.22;24.05;;;;;;;;;;5007625;28;20045;-76
2023/12/04 02:06:03;;;;;;;55.28;24.05;;;;;;;;;;5006477;28;20034;-75
2023/12/04 02:08:32;;;;;;;54.78;23.65;;;;;;;;;;5020773;28;20168;-76
2023/12/04 02:10:59;;;;;;;53.83;23.70;;;;;;;;;;5007355;28;20044;-76
2023/12/04 02:13:26;;;;;;;55.85;23.35;;;;;;;;;;5007007;28;20022;-76
2023/12/04 02:15:54;;;;;;;54.28;23.08;;;;;;;;;;5007724;28;20570;-77
2023/12/04 02:18:20;;;;;;;53.13;22.85;;;;;;;;;;5006989;28;20050;-76
2023/12/04 02:20:46;;;;;;;51.42;23.08;;;;;;;;;;5010254;28;20026;-77
2023/12/04 02:23:13;;;;;;;51.83;23.45;;;;;;;;;;5008807;28;20376;-77
2023/12/04 02:25:39;;;;;;;50.80;22.98;;;;;;;;;;5008611;28;20026;-76
2023/12/04 02:28:06;;;;;;;54.78;24.55;;;;;;;;;;5007412;28;20049;-76
2023/12/04 02:30:36;;;;;;;51.90;23.55;;;;;;;;;;5006607;28;20578;-77
2023/12/04 02:33:04;;;;;;;48.35;22.65;;;;;;;;;;5018098;28;20092;-77
2023/12/04 02:35:32;;;;;;;54.00;23.00;;;;;;;;;;5009577;28;20388;-77
2023/12/04 02:37:58;;;;;;;52.63;22.98;;;;;;;;;;5028601;28;20092;-76
2023/12/04 02:40:26;;;;;;;51.58;23.50;;;;;;;;;;5026183;28;20047;-77
2023/12/04 02:42:52;;;;;;;57.03;24.42;;;;;;;;;;5009968;28;20076;-77
2023/12/04 02:45:18;;;;;;;54.80;24.13;;;;;;;;;;5013470;28;20167;-77
2023/12/04 02:47:44;;;;;;;51.40;22.23;;;;;;;;;;5013188;28;20076;-76
2023/12/04 02:50:10;;;;;;;52.83;23.23;;;;;;;;;;5012579;28;20042;-77
2023/12/04 02:52:36;;;;;;;51.42;22.38;;;;;;;;;;5033542;28;20408;-77
2023/12/04 02:55:02;;;;;;;46.90;22.65;;;;;;;;;;5030198;28;20113;-76
2023/12/04 02:57:29;;;;;;;52.55;23.05;;;;;;;;;;5030693;28;20017;-75
2023/12/04 02:59:55;;;;;;;48.88;23.77;;;;;;;;;;5028418;28;20045;-76
2023/12/04 03:02:21;;;;;;;46.90;23.15;;;;;;;;;;5013052;28;20120;-75
2023/12/04 03:04:47;;;;;;;50.38;23.27;;;;;;;;;;5011683;28;20483;-76
2023/12/04 03:07:14;;;;;;;52.85;24.35;;;;;;;;;;5030050;28;20046;-75
2023/12/04 03:09:40;;;;;;;49.75;23.17;;;;;;;;;;5030641;28;20056;-76
2023/12/04 03:12:06;;;;;;;56.63;24.00;;;;;;;;;;5029846;28;20067;-76
2023/12/04 03:14:32;;;;;;;51.10;24.48;;;;;;;;;;5029975;28;20176;-76
2023/12/04 03:16:58;;;;;;;50.28;22.77;;;;;;;;;;5028907;28;20033;-76
2023/12/04 03:19:24;;;;;;;52.65;22.25;;;;;;;;;;5030265;28;20521;-76
2023/12/04 03:21:50;;;;;;;53.38;27.35;;;;;;;;;;5028904;28;20094;-76
2023/12/04 03:24:16;;;;;;;50.22;23.48;;;;;;;;;;5026918;28;20457;-77
2023/12/04 03:26:43;;;;;;;52.05;23.38;;;;;;;;;;5022091;28;20040;-76
2023/12/04 03:29:09;;;;;;;55.70;26.08;;;;;;;;;;5030554;28;20061;-76
2023/12/04 03:31:36;;;;;;;44.72;21.52;;;;;;;;;;5027985;28;20045;-76
2023/12/04 03:34:02;;;;;;;50.15;23.48;;;;;;;;;;5024860;28;20144;-77
2023/12/04 03:36:28;;;;;;;58.15;26.33;;;;;;;;;;5025781;28;20122;-76
2023/12/04 03:38:55;;;;;;;50.13;23.38;;;;;;;;;;5037755;28;20175;-76
2023/12/04 03:41:23;;;;;;;46.03;22.23;;;;;;;;;;5028953;28;20026;-77
2023/12/04 03:43:49;;;;;;;48.70;21.83;;;;;;;;;;5010588;28;20049;-77
2023/12/04 03:46:15;;;;;;;45.38;20.90;;;;;;;;;;5026163;28;20031;-77
2023/12/04 03:48:41;;;;;;;50.20;22.08;;;;;;;;;;5045849;28;20032;-77
2023/12/04 03:51:07;;;;;;;46.15;22.17;;;;;;;;;;5014125;28;20041;-77
2023/12/04 03:53:34;;;;;;;46.22;21.38;;;;;;;;;;5040155;28;20028;-75
2023/12/04 03:56:00;;;;;;;44.83;21.98;;;;;;;;;;5028878;28;20025;-75
2023/12/04 03:58:26;;;;;;;48.65;22.40;;;;;;;;;;5046659;28;20037;-76
2023/12/04 04:00:52;;;;;;;43.58;19.70;;;;;;;;;;5030104;28;20025;-76
2023/12/04 04:03:18;;;;;;;42.30;20.60;;;;;;;;;;5043322;28;20029;-76
2023/12/04 04:05:44;;;;;;;46.00;21.60;;;;;;;;;;5029296;28;20132;-77
2023/12/04 04:08:10;;;;;;;39.65;20.35;;;;;;;;;;5016147;28;20026;-76
2023/12/04 04:10:37;;;;;;;42.67;20.50;;;;;;;;;;5039172;28;20309;-76
2023/12/04 04:13:03;;;;;;;41.15;20.35;;;;;;;;;;5040517;28;20064;-77
2023/12/04 04:15:29;;;;;;;45.78;20.80;;;;;;;;;;5033876;28;20029;-76
2023/12/04 04:17:55;;;;;;;42.65;20.83;;;;;;;;;;5040143;28;20068;-76
2023/12/04 04:20:21;;;;;;;44.72;20.98;;;;;;;;;;5034037;28;20061;-76
2023/12/04 04:22:51;;;;;;;41.40;19.88;;;;;;;;;;5017822;28;20033;-75
2023/12/04 04:25:18;;;;;;;42.77;20.73;;;;;;;;;;5029363;28;20060;-76
2023/12/04 04:27:44;;;;;;;42.67;19.13;;;;;;;;;;5039664;28;20040;-75
2023/12/04 04:30:11;;;;;;;40.53;18.45;;;;;;;;;;5036213;28;20263;-76
2023/12/04 04:32:37;;;;;;;39.20;18.35;;;;;;;;;;5036951;28;20128;-76
2023/12/04 04:35:03;;;;;;;38.38;19.60;;;;;;;;;;5037886;28;20108;-76
2023/12/04 04:37:30;;;;;;;39.40;18.17;;;;;;;;;;5027607;28;20025;-76
2023/12/04 04:39:56;;;;;;;42.40;18.77;;;;;;;;;;5024519;28;20502;-76
2023/12/04 04:42:23;;;;;;;40.83;18.35;;;;;;;;;;5028022;28;20056;-76
2023/12/04 04:44:49;;;;;;;36.97;18.33;;;;;;;;;;5023797;28;20125;-76
2023/12/04 04:47:15;;;;;;;38.65;18.77;;;;;;;;;;5008610;28;20176;-76
2023/12/04 04:49:42;;;;;;;34.53;18.60;;;;;;;;;;5028374;28;20045;-77
2023/12/04 04:52:08;;;;;;;37.15;17.35;;;;;;;;;;5027621;28;20038;-76
2023/12/04 04:54:34;;;;;;;35.60;18.15;;;;;;;;;;5028367;28;20418;-77
2023/12/04 04:57:00;;;;;;;36.83;18.40;;;;;;;;;;5034121;28;20026;-77
2023/12/04 04:59:30;;;;;;;37.67;18.40;;;;;;;;;;5032852;28;20036;-76
2023/12/04 05:01:56;;;;;;;33.05;16.88;;;;;;;;;;5027927;28;20034;-77
2023/12/04 05:04:22;;;;;;;35.00;17.25;;;;;;;;;;5026488;28;20116;-77
2023/12/04 05:06:48;;;;;;;38.33;17.73;;;;;;;;;;5028530;28;20036;-76
2023/12/04 05:09:16;;;;;;;40.75;16.98;;;;;;;;;;5028572;28;20025;-76
2023/12/04 05:11:42;;;;;;;34.53;17.45;;;;;;;;;;5028920;28;20034;-77
2023/12/04 05:14:08;;;;;;;36.28;18.05;;;;;;;;;;5029008;28;20021;-77
2023/12/04 05:16:34;;;;;;;37.55;18.70;;;;;;;;;;5028158;28;20451;-76
2023/12/04 05:19:00;;;;;;;35.70;16.95;;;;;;;;;;5029505;28;20108;-77
2023/12/04 05:21:26;;;;;;;37.42;17.75;;;;;;;;;;5028219;28;20455;-78
2023/12/04 05:23:52;;;;;;;35.03;17.38;;;;;;;;;;5027298;28;20025;-76
2023/12/04 05:26:19;;;;;;;37.03;16.58;;;;;;;;;;5029351;28;20052;-76
2023/12/04 05:28:46;;;;;;;34.45;16.90;;;;;;;;;;5008323;28;20501;-76
2023/12/04 05:31:12;;;;;;;31.08;15.82;;;;;;;;;;5021104;28;20053;-76
2023/12/04 05:33:38;;;;;;;36.67;17.50;;;;;;;;;;5029129;28;20049;-77
2023/12/04 05:36:05;;;;;;;33.88;17.58;;;;;;;;;;5007331;28;20145;-78
2023/12/04 05:38:31;;;;;;;35.15;17.75;;;;;;;;;;4999489;28;20113;-77
2023/12/04 05:40:57;;;;;;;33.22;16.42;;;;;;;;;;5024254;28;20509;-77
2023/12/04 05:43:24;;;;;;;34.88;17.65;;;;;;;;;;5007490;28;20109;-76
2023/12/04 05:45:50;;;;;;;35.63;17.90;;;;;;;;;;5008534;28;20026;-76
2023/12/04 05:48:16;;;;;;;37.47;18.92;;;;;;;;;;5008017;28;20057;-77
2023/12/04 05:50:42;;;;;;;36.25;17.30;;;;;;;;;;5027320;28;20116;-77
2023/12/04 05:53:09;;;;;;;30.05;17.98;;;;;;;;;;5010887;28;20057;-77
2023/12/04 05:55:35;;;;;;;35.42;18.23;;;;;;;;;;5028086;28;20096;-77
2023/12/04 05:58:02;;;;;;;36.28;18.27;;;;;;;;;;5027834;28;20022;-77
2023/12/04 06:00:28;;;;;;;33.50;18.35;;;;;;;;;;5027331;28;20041;-78
2023/12/04 06:02:54;;;;;;;33.17;18.17;;;;;;;;;;5028260;28;20493;-78
2023/12/04 06:05:20;;;;;;;32.40;17.52;;;;;;;;;;5028876;28;20025;-77
2023/12/04 06:07:46;;;;;;;31.33;17.90;;;;;;;;;;5027600;28;20033;-75
2023/12/04 06:10:12;;;;;;;32.92;19.17;;;;;;;;;;5026777;28;20508;-75
2023/12/04 06:12:38;;;;;;;33.85;18.45;;;;;;;;;;5023021;28;20038;-78
2023/12/04 06:15:05;;;;;;;36.55;19.13;;;;;;;;;;5023927;28;20036;-77
2023/12/04 06:17:31;;;;;;;33.63;18.48;;;;;;;;;;5031560;28;20022;-77
2023/12/04 06:19:57;;;;;;;35.17;18.40;;;;;;;;;;5010541;28;20537;-77
2023/12/04 06:22:23;;;;;;;29.75;17.05;;;;;;;;;;5015607;28;20510;-77
2023/12/04 06:24:53;;;;;;;30.60;17.15;;;;;;;;;;5024421;28;20040;-76
2023/12/04 06:27:20;;;;;;;30.77;17.20;;;;;;;;;;5032069;28;20044;-76
2023/12/04 06:29:47;;;;;;;32.95;17.60;;;;;;;;;;5013102;28;20029;-78
2023/12/04 06:32:14;;;;;;;29.67;16.20;;;;;;;;;;5023920;28;20046;-78
2023/12/04 06:34:40;;;;;;;31.42;18.02;;;;;;;;;;5030523;28;20041;-77
2023/12/04 06:37:13;;;;;;;26.98;15.38;;;;;;;;;;5030082;28;20032;-78
2023/12/04 06:39:40;;;;;;;31.20;17.58;;;;;;;;;;5022185;28;20061;-77
2023/12/04 06:42:07;;;;;;;28.63;16.45;;;;;;;;;;5030633;28;20125;-77
2023/12/04 06:44:33;;;;;;;28.48;15.13;;;;;;;;;;5012008;28;20398;-75
2023/12/04 06:47:03;;;;;;;29.83;16.40;;;;;;;;;;5030964;28;20025;-76
2023/12/04 06:49:33;;;;;;;28.15;16.85;;;;;;;;;;5014184;28;20096;-77
2023/12/04 06:51:59;;;;;;;27.35;15.90;;;;;;;;;;5011189;28;20034;-77
2023/12/04 06:54:25;;;;;;;27.88;15.75;;;;;;;;;;5030608;28;20025;-77
2023/12/04 06:56:51;;;;;;;28.38;15.48;;;;;;;;;;5013239;28;20097;-77
2023/12/04 06:59:19;;;;;;;27.85;15.52;;;;;;;;;;5012788;28;20030;-77
2023/12/04 07:01:46;;;;;;;34.05;16.33;;;;;;;;;;5029136;28;20442;-77
2023/12/04 07:04:12;;;;;;;28.60;16.02;;;;;;;;;;5009522;28;20487;-76
2023/12/04 07:06:38;;;;;;;27.48;15.38;;;;;;;;;;5028450;28;20045;-77
2023/12/04 07:09:05;;;;;;;27.70;15.13;;;;;;;;;;5029345;28;20045;-77
2023/12/04 07:11:32;;;;;;;27.38;14.75;;;;;;;;;;5030304;28;20025;-78
2023/12/04 07:13:58;;;;;;;25.08;15.45;;;;;;;;;;5027894;28;20037;-76
2023/12/04 07:16:24;;;;;;;25.50;14.60;;;;;;;;;;5019753;28;20167;-77
2023/12/04 07:18:50;;;;;;;28.42;15.13;;;;;;;;;;5028641;28;20041;-76
2023/12/04 07:21:16;;;;;;;30.55;17.45;;;;;;;;;;5012434;28;20033;-76
2023/12/04 07:23:42;;;;;;;30.08;17.35;;;;;;;;;;5030597;28;20037;-76
2023/12/04 07:26:08;;;;;;;29.02;15.50;;;;;;;;;;5025798;28;20058;-76
2023/12/04 07:28:35;;;;;;;26.63;16.00;;;;;;;;;;5029471;28;20109;-78
2023/12/04 07:31:04;;;;;;;25.40;15.20;;;;;;;;;;5030738;28;20045;-77
2023/12/04 07:33:30;;;;;;;26.98;15.73;;;;;;;;;;5030248;28;20045;-78
2023/12/04 07:35:56;;;;;;;28.25;14.85;;;;;;;;;;5030688;28;20580;-78
2023/12/04 07:38:22;;;;;;;27.50;14.73;;;;;;;;;;5029111;28;20095;-77
2023/12/04 07:40:49;;;;;;;24.50;14.90;;;;;;;;;;5012785;28;20048;-78
2023/12/04 07:43:15;;;;;;;29.90;15.32;;;;;;;;;;5030135;28;20040;-77
2023/12/04 07:45:42;;;;;;;24.88;15.52;;;;;;;;;;5030129;28;20072;-77
2023/12/04 07:48:08;;;;;;;28.92;15.52;;;;;;;;;;5024669;28;20052;-77
2023/12/04 07:50:35;;;;;;;24.42;13.60;;;;;;;;;;5029365;28;20037;-77
2023/12/04 07:53:02;;;;;;;24.55;13.77;;;;;;;;;;5028466;28;20048;-77
2023/12/04 07:55:28;;;;;;;23.95;14.73;;;;;;;;;;5012371;28;20503;-76
2023/12/04 07:57:56;;;;;;;24.77;13.80;;;;;;;;;;5028572;28;20446;-78
2023/12/04 08:00:26;;;;;;;24.63;14.43;;;;;;;;;;5028115;28;20056;-76
2023/12/04 08:02:53;;;;;;;24.60;14.48;;;;;;;;;;5027821;28;20659;-78
2023/12/04 08:05:19;;;;;;;25.40;13.88;;;;;;;;;;5026418;28;20057;-77
2023/12/04 08:07:45;;;;;;;23.65;13.55;;;;;;;;;;5009011;28;20022;-77
2023/12/04 08:10:11;;;;;;;25.77;13.48;;;;;;;;;;5028786;28;20049;-77
2023/12/04 08:12:38;;;;;;;21.50;13.15;;;;;;;;;;5030818;28;20044;-78
2023/12/04 08:15:05;;;;;;;23.17;13.48;;;;;;;;;;5029753;28;20034;-78
2023/12/04 08:17:31;;;;;;;22.67;13.05;;;;;;;;;;5012413;28;20033;-77
2023/12/04 08:19:57;;;;;;;22.50;13.80;;;;;;;;;;4997225;28;20034;-76
2023/12/04 08:22:23;;;;;;;21.35;13.30;;;;;;;;;;5030551;28;20048;-77
2023/12/04 08:24:50;;;;;;;21.65;12.70;;;;;;;;;;5028589;28;20048;-78
2023/12/04 08:27:16;;;;;;;21.65;12.32;;;;;;;;;;5030561;28;20049;-76
2023/12/04 08:29:42;;;;;;;24.48;13.05;;;;;;;;;;5029518;28;20033;-78
2023/12/04 08:32:08;;;;;;;20.80;13.45;;;;;;;;;;5012651;28;20041;-77
2023/12/04 08:34:35;;;;;;;22.83;12.85;;;;;;;;;;5029927;28;20037;-77
2023/12/04 08:37:01;;;;;;;22.25;12.95;;;;;;;;;;5026568;28;20072;-77
2023/12/04 08:39:27;;;;;;;23.67;12.98;;;;;;;;;;5012305;28;20030;-77
2023/12/04 08:41:53;;;;;;;21.52;12.32;;;;;;;;;;5029513;28;20083;-77
2023/12/04 08:44:23;;;;;;;22.27;11.77;;;;;;;;;;5028447;28;20033;-77
2023/12/04 08:46:50;;;;;;;22.35;12.63;;;;;;;;;;5028285;28;20057;-77
2023/12/04 08:49:17;;;;;;;25.20;12.32;;;;;;;;;;5007641;28;20042;-78
2023/12/04 08:51:43;;;;;;;20.33;12.50;;;;;;;;;;5026537;28;20029;-79
2023/12/04 08:54:09;;;;;;;17.00;10.57;;;;;;;;;;5027584;28;20040;-77
2023/12/04 08:56:35;;;;;;;20.35;12.20;;;;;;;;;;5025060;28;20022;-77
2023/12/04 08:59:02;;;;;;;20.05;11.60;;;;;;;;;;5028814;28;20090;-77
2023/12/04 09:01:28;;;;;;;19.20;11.15;;;;;;;;;;5012427;28;20040;-77
2023/12/04 09:03:55;;;;;;;17.98;11.40;;;;;;;;;;4995483;28;20560;-77
2023/12/04 09:06:22;;;;;;;16.23;10.23;;;;;;;;;;5011698;28;20375;-77
2023/12/04 09:08:48;;;;;;;17.48;10.90;;;;;;;;;;5027806;28;20099;-76
2023/12/04 09:11:14;;;;;;;19.25;11.40;;;;;;;;;;5015801;28;20022;-76
2023/12/04 09:13:40;;;;;;;17.02;10.18;;;;;;;;;;5027629;28;20032;-76
2023/12/04 09:16:07;;;;;;;19.50;10.50;;;;;;;;;;5027786;28;20088;-77
2023/12/04 09:18:34;;;;;;;15.88;9.85;;;;;;;;;;5028482;28;20034;-77
2023/12/04 09:21:00;;;;;;;15.45;10.10;;;;;;;;;;5029341;28;20038;-77
2023/12/04 09:23:26;;;;;;;16.10;10.18;;;;;;;;;;5028274;28;20128;-76
2023/12/04 09:25:52;;;;;;;19.35;9.80;;;;;;;;;;5027635;28;20033;-78
2023/12/04 09:28:18;;;;;;;16.83;10.25;;;;;;;;;;5029513;28;20075;-78
2023/12/04 09:30:45;;;;;;;14.82;9.70;;;;;;;;;;5029338;28;20091;-77
2023/12/04 09:33:11;;;;;;;17.90;10.73;;;;;;;;;;5028944;28;20034;-77
2023/12/04 09:35:37;;;;;;;17.02;9.82;;;;;;;;;;5029193;28;20030;-77
2023/12/04 09:38:03;;;;;;;15.52;9.60;;;;;;;;;;5029291;28;20025;-77
2023/12/04 09:40:29;;;;;;;17.83;10.07;;;;;;;;;;5010091;28;20136;-78
2023/12/04 09:42:56;;;;;;;17.88;10.38;;;;;;;;;;5028497;28;20554;-77
2023/12/04 09:45:24;;;;;;;15.40;9.63;;;;;;;;;;5028417;28;20041;-77
2023/12/04 09:47:50;;;;;;;17.58;9.45;;;;;;;;;;5007795;28;20548;-77
2023/12/04 09:50:21;;;;;;;16.50;10.13;;;;;;;;;;5024636;28;20042;-78
2023/12/04 09:52:50;;;;;;;16.85;9.68;;;;;;;;;;5033711;28;20048;-77
2023/12/04 09:55:17;;;;;;;16.10;9.50;;;;;;;;;;5030805;28;20029;-77
2023/12/04 09:57:45;;;;;;;17.25;10.15;;;;;;;;;;5031506;28;20022;-78
2023/12/04 10:00:13;;;;;;;17.13;9.68;;;;;;;;;;5020304;28;20034;-77
2023/12/04 10:02:40;;;;;;;14.80;9.65;;;;;;;;;;5011538;28;20487;-78
2023/12/04 10:05:07;;;;;;;15.07;9.75;;;;;;;;;;5025654;28;20033;-77
2023/12/04 10:07:33;;;;;;;14.43;9.70;;;;;;;;;;5031107;28;20029;-76
2023/12/04 10:09:59;;;;;;;17.00;9.52;;;;;;;;;;5031813;28;20505;-76
2023/12/04 10:12:26;;;;;;;15.05;9.57;;;;;;;;;;5029760;28;20437;-77
2023/12/04 10:15:11;;;;;;;18.98;10.40;;;;;;;;;;5031831;28;20032;-77
2023/12/04 10:17:38;;;;;;;17.30;10.18;;;;;;;;;;5032556;28;20371;-76
2023/12/04 10:20:10;;;;;;;17.10;10.00;;;;;;;;;;5031581;28;20120;-76
2023/12/04 10:22:38;;;;;;;16.30;9.93;;;;;;;;;;5032359;28;20037;-76
2023/12/04 10:25:24;;;;;;;16.75;10.20;;;;;;;;;;5011116;28;20040;-77
2023/12/04 10:27:50;;;;;;;16.13;9.70;;;;;;;;;;5012524;28;20137;-77
2023/12/04 10:30:23;;;;;;;17.52;10.52;;;;;;;;;;5012743;28;20060;-77
2023/12/04 10:32:49;;;;;;;17.17;9.82;;;;;;;;;;5009814;28;20068;-76
2023/12/04 10:35:16;;;;;;;19.00;9.90;;;;;;;;;;4996458;28;20226;-76
2023/12/04 10:37:42;;;;;;;17.33;9.50;;;;;;;;;;5012714;28;20047;-77
2023/12/04 10:40:09;;;;;;;18.25;10.48;;;;;;;;;;5007688;28;20046;-77
2023/12/04 10:42:35;;;;;;;19.10;11.23;;;;;;;;;;5026730;28;20057;-77
2023/12/04 10:45:01;;;;;;;18.35;10.65;;;;;;;;;;5011587;28;20022;-77
2023/12/04 10:47:30;;;;;;;17.15;10.63;;;;;;;;;;5006733;28;20035;-77
2023/12/04 10:49:56;;;;;;;17.52;11.13;;;;;;;;;;5009471;28;20038;-75
2023/12/04 10:52:23;;;;;;;20.08;11.05;;;;;;;;;;5010995;28;20057;-76
2023/12/04 10:54:49;;;;;;;16.50;10.15;;;;;;;;;;5012255;28;20034;-76
2023/12/04 10:57:32;;;;;;;19.88;10.50;;;;;;;;;;5012388;28;20025;-78
2023/12/04 11:00:00;;;;;;;18.17;10.43;;;;;;;;;;5011694;28;20030;-77
2023/12/04 11:02:26;;;;;;;21.33;10.82;;;;;;;;;;5011491;28;20033;-77
2023/12/04 11:04:55;;;;;;;18.13;10.93;;;;;;;;;;5012175;28;20038;-77
2023/12/04 11:07:23;;;;;;;17.73;11.18;;;;;;;;;;5012041;28;20037;-77
2023/12/04 11:09:49;;;;;;;18.27;10.32;;;;;;;;;;5013054;28;20096;-76
2023/12/04 11:12:18;;;;;;;15.23;9.82;;;;;;;;;;5013463;28;20048;-77
2023/12/04 11:14:50;;;;;;;19.33;11.65;;;;;;;;;;5012201;28;20032;-77
2023/12/04 11:17:17;;;;;;;20.17;10.15;;;;;;;;;;5011860;28;20426;-77
2023/12/04 11:19:56;;;;;;;16.42;10.13;;;;;;;;;;5005705;28;20088;-76
2023/12/04 11:22:22;;;;;;;18.48;11.18;;;;;;;;;;4991225;28;20056;-76
2023/12/04 11:24:50;;;;;;;19.63;11.60;;;;;;;;;;5005108;28;20038;-76
2023/12/04 11:27:18;;;;;;;16.67;10.70;;;;;;;;;;5008996;28;20047;-77
2023/12/04 11:29:47;;;;;;;17.25;10.45;;;;;;;;;;5004281;28;20074;-76
2023/12/04 11:32:17;;;;;;;18.38;11.00;;;;;;;;;;5009899;28;20048;-76
2023/12/04 11:34:56;;;;;;;21.70;11.45;;;;;;;;;;5030625;28;20053;-77
2023/12/04 11:37:23;;;;;;;19.13;11.50;;;;;;;;;;5030810;28;20022;-75
2023/12/04 11:39:54;;;;;;;19.20;10.85;;;;;;;;;;5028983;28;20137;-76
2023/12/04 11:42:25;;;;;;;18.85;11.70;;;;;;;;;;5013529;28;20034;-76
2023/12/04 11:44:58;;;;;;;18.63;11.60;;;;;;;;;;5029301;28;20033;-77
2023/12/04 11:47:25;;;;;;;21.95;11.82;;;;;;;;;;5030527;28;20038;-77
2023/12/04 11:49:51;;;;;;;19.20;11.80;;;;;;;;;;5029914;28;20037;-76
2023/12/04 11:52:17;;;;;;;19.92;12.00;;;;;;;;;;5030869;28;20034;-77
2023/12/04 11:55:00;;;;;;;22.95;12.40;;;;;;;;;;5029245;28;20025;-77
2023/12/04 11:57:29;;;;;;;20.63;12.40;;;;;;;;;;5030291;28;20025;-78
2023/12/04 12:00:17;;;;;;;21.88;12.80;;;;;;;;;;5012175;28;20083;-77
2023/12/04 12:02:52;;;;;;;31.40;14.23;;;;;;;;;;5027784;28;20063;-75
2023/12/04 12:05:20;;;;;;;18.20;11.93;;;;;;;;;;5009855;28;20038;-78
2023/12/04 12:07:46;;;;;;;20.10;12.30;;;;;;;;;;5011138;28;20034;-77
2023/12/04 12:10:13;;;;;;;21.98;12.40;;;;;;;;;;5013369;28;20052;-77
2023/12/04 12:12:42;;;;;;;19.42;12.10;;;;;;;;;;5030480;28;20035;-77
2023/12/04 12:15:14;;;;;;;20.05;12.75;;;;;;;;;;5028568;28;20025;-76
2023/12/04 12:17:40;;;;;;;20.02;12.73;;;;;;;;;;5028482;28;20080;-76
2023/12/04 12:20:07;;;;;;;21.27;12.50;;;;;;;;;;5030965;28;20113;-76
2023/12/04 12:22:40;;;;;;;23.92;13.25;;;;;;;;;;5030784;28;20037;-77
2023/12/04 12:25:07;;;;;;;23.25;13.30;;;;;;;;;;5030329;28;20491;-77
2023/12/04 12:27:34;;;;;;;20.52;12.98;;;;;;;;;;5030799;28;20034;-77
2023/12/04 12:30:00;;;;;;;23.30;13.13;;;;;;;;;;5030135;28;20057;-77
2023/12/04 12:32:26;;;;;;;22.40;12.60;;;;;;;;;;5016219;28;20590;-77
2023/12/04 12:34:54;;;;;;;20.80;12.88;;;;;;;;;;5025600;28;20029;-76
2023/12/04 12:37:21;;;;;;;22.85;13.00;;;;;;;;;;5011773;28;20053;-77
2023/12/04 12:39:47;;;;;;;21.08;12.77;;;;;;;;;;5011699;28;20033;-76
2023/12/04 12:42:22;;;;;;;40.03;15.68;;;;;;;;;;5028855;28;20116;-76
2023/12/04 12:44:48;;;;;;;25.25;13.43;;;;;;;;;;5028913;28;20037;-76
2023/12/04 12:47:16;;;;;;;21.50;13.02;;;;;;;;;;5012011;28;20053;-77
2023/12/04 12:49:42;;;;;;;21.25;12.55;;;;;;;;;;5029692;28;20099;-77
2023/12/04 12:52:10;;;;;;;24.48;14.00;;;;;;;;;;5027523;28;20037;-76
2023/12/04 12:54:38;;;;;;;22.52;13.30;;;;;;;;;;5028523;28;20018;-78
2023/12/04 12:57:04;;;;;;;24.33;13.68;;;;;;;;;;5029277;28;20029;-77
2023/12/04 12:59:30;;;;;;;21.98;12.73;;;;;;;;;;5011615;28;20041;-77
2023/12/04 13:02:03;;;;;;;22.65;13.15;;;;;;;;;;5012196;28;20129;-75
2023/12/04 13:04:38;;;;;;;22.50;14.18;;;;;;;;;;5027098;28;20037;-76
2023/12/04 13:07:06;;;;;;;22.60;12.98;;;;;;;;;;5011107;28;20136;-76
2023/12/04 13:09:35;;;;;;;23.75;14.40;;;;;;;;;;5007861;28;20034;-77
2023/12/04 13:12:01;;;;;;;22.63;12.88;;;;;;;;;;5022853;28;20025;-78
2023/12/04 13:14:28;;;;;;;22.50;13.73;;;;;;;;;;5026434;28;20106;-76
2023/12/04 13:16:57;;;;;;;22.23;13.98;;;;;;;;;;5028032;28;20072;-77
2023/12/04 13:19:23;;;;;;;23.60;14.52;;;;;;;;;;5026248;28;20112;-77
2023/12/04 13:21:50;;;;;;;20.25;12.27;;;;;;;;;;5029588;28;20045;-76
2023/12/04 13:24:17;;;;;;;24.05;13.70;;;;;;;;;;4994768;28;20408;-77
2023/12/04 13:26:44;;;;;;;25.92;13.93;;;;;;;;;;5007989;28;20083;-77
2023/12/04 13:29:10;;;;;;;24.63;14.20;;;;;;;;;;5028243;28;20137;-77
2023/12/04 13:31:37;;;;;;;22.90;14.27;;;;;;;;;;5007858;28;20076;-80
2023/12/04 13:34:06;;;;;;;21.52;14.02;;;;;;;;;;5024691;28;20415;-77
2023/12/04 13:36:33;;;;;;;23.63;13.50;;;;;;;;;;5028109;28;20025;-77
2023/12/04 13:38:59;;;;;;;21.80;14.05;;;;;;;;;;5024001;28;20040;-77
2023/12/04 13:44:14;;;;;;;24.58;13.73;;;;;;;;;;5026756;28;20037;-76
2023/12/04 13:46:40;;;;;;;21.70;13.10;;;;;;;;;;5024717;28;20101;-79
2023/12/04 13:49:06;;;;;;;24.58;14.55;;;;;;;;;;5023975;28;20350;-77
2023/12/04 13:51:34;;;;;;;24.33;13.80;;;;;;;;;;5008689;28;20029;-77
2023/12/04 13:54:15;;;;;;;22.83;13.65;;;;;;;;;;5028161;28;20127;-76
2023/12/04 13:56:48;;;;;;;31.83;15.57;;;;;;;;;;5027643;28;20118;-77
2023/12/04 13:59:19;;;;;;;27.10;15.85;;;;;;;;;;5027207;28;20534;-76
2023/12/04 14:01:46;;;;;;;23.33;14.98;;;;;;;;;;5007526;28;20033;-77
2023/12/04 14:04:12;;;;;;;27.10;13.40;;;;;;;;;;5026788;28;20075;-78
2023/12/04 14:06:38;;;;;;;22.63;12.50;;;;;;;;;;5027673;28;20040;-77
2023/12/04 14:09:10;;;;;;;23.15;13.57;;;;;;;;;;5008836;28;20307;-77
2023/12/04 14:11:37;;;;;;;21.52;13.45;;;;;;;;;;5028460;28;20271;-77
2023/12/04 14:14:03;;;;;;;23.42;14.00;;;;;;;;;;5027840;28;20090;-77
2023/12/04 14:16:30;;;;;;;24.88;14.50;;;;;;;;;;5021716;28;20064;-77
2023/12/04 14:18:56;;;;;;;24.02;13.63;;;;;;;;;;5022563;28;20033;-77
2023/12/04 14:21:22;;;;;;;25.48;15.13;;;;;;;;;;5021111;28;20021;-77